createdAt,value
2022-11-22T00:00:21.688Z,2.97
2022-11-22T00:02:48.404Z,2.37
2022-11-22T00:05:15.089Z,2.53
2022-11-22T00:07:41.934Z,2.03
2022-11-22T00:10:10.993Z,2.33
2022-11-22T00:12:38.060Z,3.40
2022-11-22T00:15:05.258Z,2.47
2022-11-22T00:17:32.327Z,2.60
2022-11-22T00:19:59.085Z,2.23
2022-11-22T00:22:25.861Z,2.67
2022-11-22T00:24:53.131Z,2.97
2022-11-22T00:27:20.871Z,2.63
2022-11-22T00:29:47.412Z,2.80
2022-11-22T00:32:14.118Z,2.70
2022-11-22T00:34:40.872Z,2.50
2022-11-22T00:37:07.755Z,2.40
2022-11-22T00:39:35.044Z,2.80
2022-11-22T00:42:01.691Z,2.33
2022-11-22T00:44:28.226Z,2.50
2022-11-22T00:46:54.786Z,2.17
2022-11-22T00:49:21.865Z,2.27
2022-11-22T00:51:48.406Z,2.70
2022-11-22T00:54:15.032Z,2.43
2022-11-22T00:56:41.624Z,2.87
2022-11-22T00:59:08.113Z,2.20
2022-11-22T01:01:34.714Z,2.40
2022-11-22T01:04:01.379Z,2.30
2022-11-22T01:06:27.942Z,2.67
2022-11-22T01:08:54.523Z,2.17
2022-11-22T01:11:21.790Z,2.10
2022-11-22T01:13:48.382Z,1.83
2022-11-22T01:16:15.485Z,2.97
2022-11-22T01:18:42.108Z,2.83
2022-11-22T01:21:08.991Z,2.50
2022-11-22T01:23:35.968Z,2.40
2022-11-22T01:26:02.958Z,2.40
2022-11-22T01:28:29.499Z,2.20
2022-11-22T01:30:56.120Z,2.30
2022-11-22T01:33:23.116Z,1.83
2022-11-22T01:35:49.782Z,2.03
2022-11-22T01:38:16.586Z,2.10
2022-11-22T01:40:43.123Z,1.90
2022-11-22T01:43:22.282Z,2.10
2022-11-22T01:46:29.959Z,2.20
2022-11-22T01:49:06.114Z,1.90
2022-11-22T01:51:38.849Z,1.70
2022-11-22T01:54:12.409Z,1.70
2022-11-22T01:56:42.324Z,1.90
2022-11-22T01:59:14.379Z,1.60
2022-11-22T02:01:41.051Z,2.10
2022-11-22T02:04:09.760Z,1.80
2022-11-22T02:06:42.391Z,1.87
2022-11-22T02:09:12.861Z,1.90
2022-11-22T02:11:45.922Z,1.60
2022-11-22T02:14:14.891Z,1.90
2022-11-22T02:16:43.566Z,1.63
2022-11-22T02:19:18.054Z,2.00
2022-11-22T02:21:50.236Z,2.00
2022-11-22T02:24:23.101Z,2.50
2022-11-22T02:26:49.690Z,1.87
2022-11-22T02:29:16.278Z,2.00
2022-11-22T02:31:47.029Z,2.33
2022-11-22T02:34:14.506Z,1.90
2022-11-22T02:36:49.436Z,1.43
2022-11-22T02:39:19.662Z,1.20
2022-11-22T02:41:47.723Z,1.47
2022-11-22T02:44:15.006Z,1.97
2022-11-22T02:46:53.850Z,1.63
2022-11-22T02:49:23.765Z,1.77
2022-11-22T02:51:52.114Z,2.57
2022-11-22T02:54:19.429Z,1.93
2022-11-22T02:56:46.139Z,2.07
2022-11-22T02:59:12.765Z,2.10
2022-11-22T03:01:39.543Z,1.77
2022-11-22T03:04:06.195Z,1.47
2022-11-22T03:06:32.725Z,1.40
2022-11-22T03:08:59.209Z,1.30
2022-11-22T03:11:25.859Z,1.40
2022-11-22T03:13:53.514Z,1.43
2022-11-22T03:16:20.095Z,1.83
2022-11-22T03:18:46.670Z,1.47
2022-11-22T03:21:13.160Z,1.30
2022-11-22T03:23:39.713Z,1.27
2022-11-22T03:26:11.338Z,1.30
2022-11-22T03:28:38.087Z,1.33
2022-11-22T03:31:06.529Z,1.60
2022-11-22T03:33:34.416Z,1.87
2022-11-22T03:36:01.014Z,1.90
2022-11-22T03:38:27.545Z,1.57
2022-11-22T03:40:54.077Z,1.30
2022-11-22T03:43:20.946Z,1.50
2022-11-22T03:45:48.594Z,1.30
2022-11-22T03:48:15.071Z,1.63
2022-11-22T03:50:41.712Z,1.40
2022-11-22T03:53:08.346Z,1.60
2022-11-22T03:55:35.305Z,1.00
2022-11-22T03:58:01.859Z,1.60
2022-11-22T04:00:28.551Z,1.37
2022-11-22T04:02:55.106Z,1.20
2022-11-22T04:05:21.643Z,1.37
2022-11-22T04:07:48.969Z,1.77
2022-11-22T04:10:20.799Z,1.43
2022-11-22T04:12:48.753Z,1.33
2022-11-22T04:15:15.311Z,1.47
2022-11-22T04:17:45.010Z,2.63
2022-11-22T04:20:41.820Z,0.90
2022-11-22T04:23:17.138Z,1.10
2022-11-22T04:25:51.831Z,1.30
2022-11-22T04:28:24.514Z,1.20
2022-11-22T04:31:16.052Z,1.10
2022-11-22T04:33:42.559Z,1.50
2022-11-22T04:36:13.294Z,1.17
2022-11-22T04:38:40.114Z,1.30
2022-11-22T04:41:06.616Z,1.00
2022-11-22T04:43:51.874Z,1.47
2022-11-22T04:46:18.395Z,1.10
2022-11-22T04:48:44.892Z,1.37
2022-11-22T04:51:32.645Z,1.30
2022-11-22T04:53:59.282Z,1.00
2022-11-22T04:56:25.779Z,1.13
2022-11-22T04:58:52.333Z,1.23
2022-11-22T05:01:18.959Z,1.57
2022-11-22T05:03:45.571Z,1.10
2022-11-22T05:06:13.474Z,1.80
2022-11-22T05:08:39.986Z,1.13
2022-11-22T05:11:06.522Z,2.00
2022-11-22T05:13:36.019Z,1.13
2022-11-22T05:16:04.745Z,1.00
2022-11-22T05:18:31.484Z,1.23
2022-11-22T05:21:00.129Z,1.53
2022-11-22T05:23:45.420Z,1.40
2022-11-22T05:26:12.006Z,0.87
2022-11-22T05:28:39.240Z,1.27
2022-11-22T05:31:10.890Z,1.40
2022-11-22T05:33:38.881Z,1.23
2022-11-22T05:36:06.404Z,1.60
2022-11-22T05:38:38.061Z,1.27
2022-11-22T05:41:07.029Z,1.70
2022-11-22T05:43:33.753Z,1.67
2022-11-22T05:46:13.398Z,1.63
2022-11-22T05:48:42.233Z,1.47
2022-11-22T05:51:14.634Z,1.47
2022-11-22T05:53:44.655Z,1.43
2022-11-22T05:56:19.991Z,1.73
2022-11-22T05:58:46.544Z,1.43
2022-11-22T06:01:18.353Z,2.30
2022-11-22T06:03:45.800Z,1.47
2022-11-22T06:06:13.299Z,1.43
2022-11-22T06:08:43.261Z,1.60
2022-11-22T06:11:24.512Z,1.57
2022-11-22T06:13:57.426Z,1.97
2022-11-22T06:16:24.799Z,1.77
2022-11-22T06:18:51.338Z,1.23
2022-11-22T06:21:23.140Z,1.90
2022-11-22T06:23:50.318Z,2.50
2022-11-22T06:26:19.101Z,1.57
2022-11-22T06:28:47.003Z,1.53
2022-11-22T06:31:24.939Z,1.40
2022-11-22T06:33:54.541Z,1.53
2022-11-22T06:36:24.821Z,1.90
2022-11-22T06:38:51.930Z,2.33
2022-11-22T06:41:23.038Z,1.87
2022-11-22T06:43:51.316Z,1.30
2022-11-22T06:46:19.597Z,1.93
2022-11-22T06:48:46.631Z,2.60
2022-11-22T06:51:17.467Z,2.33
2022-11-22T06:53:48.871Z,2.33
2022-11-22T06:56:18.465Z,2.10
2022-11-22T06:58:45.909Z,2.63
2022-11-22T07:01:24.874Z,2.33
2022-11-22T07:03:55.973Z,2.00
2022-11-22T07:06:22.550Z,2.60
2022-11-22T07:08:49.080Z,2.40
2022-11-22T07:11:18.022Z,2.40
2022-11-22T07:13:45.280Z,2.20
2022-11-22T07:16:14.291Z,2.20
2022-11-22T07:18:41.346Z,2.40
2022-11-22T07:21:13.132Z,2.07
2022-11-22T07:23:45.721Z,2.43
2022-11-22T07:26:13.795Z,2.90
2022-11-22T07:28:40.698Z,2.07
2022-11-22T07:31:08.949Z,2.13
2022-11-22T07:33:35.854Z,2.20
2022-11-22T07:36:30.242Z,3.27
2022-11-22T07:38:56.771Z,2.10
2022-11-22T07:41:23.512Z,2.23
2022-11-22T07:43:50.633Z,1.80
2022-11-22T07:46:26.100Z,2.30
2022-11-22T07:48:52.813Z,3.13
2022-11-22T07:51:19.353Z,2.33
2022-11-22T07:53:46.095Z,1.90
2022-11-22T07:56:13.109Z,1.70
2022-11-22T07:58:40.074Z,3.03
2022-11-22T08:01:18.007Z,2.80
2022-11-22T08:03:45.554Z,3.03
2022-11-22T08:06:13.252Z,2.83
2022-11-22T08:08:39.924Z,3.37
2022-11-22T08:11:07.050Z,2.50
2022-11-22T08:13:34.463Z,2.70
2022-11-22T08:16:06.045Z,3.40
2022-11-22T08:18:33.755Z,3.37
2022-11-22T08:21:09.236Z,2.87
2022-11-22T08:23:36.690Z,3.10
2022-11-22T08:26:03.648Z,3.20
2022-11-22T08:28:30.477Z,2.77
2022-11-22T08:31:14.467Z,3.90
2022-11-22T08:33:41.528Z,2.90
2022-11-22T08:36:08.380Z,3.13
2022-11-22T08:38:35.986Z,4.03
2022-11-22T08:41:04.118Z,3.10
2022-11-22T08:43:31.398Z,3.70
2022-11-22T08:45:59.476Z,3.63
2022-11-22T08:48:26.525Z,3.27
2022-11-22T08:50:54.739Z,3.13
2022-11-22T08:53:21.725Z,3.37
2022-11-22T08:55:48.673Z,2.83
2022-11-22T08:58:15.323Z,3.87
2022-11-22T09:00:41.863Z,4.00
2022-11-22T09:03:08.381Z,3.83
2022-11-22T09:05:35.089Z,4.43
2022-11-22T09:10:48.262Z,4.40
2022-11-22T09:13:14.847Z,3.50
2022-11-22T09:15:41.402Z,3.63
2022-11-22T09:18:07.912Z,3.57
2022-11-22T09:20:34.527Z,3.30
2022-11-22T09:23:03.049Z,4.07
2022-11-22T09:25:29.508Z,3.30
2022-11-22T09:28:00.059Z,4.50
2022-11-22T09:30:26.690Z,3.00
2022-11-22T09:32:53.171Z,4.30
2022-11-22T09:35:20.218Z,5.63
2022-11-22T09:37:47.351Z,3.27
2022-11-22T09:40:15.195Z,4.83
2022-11-22T09:42:44.679Z,4.10
2022-11-22T09:45:43.287Z,3.50
2022-11-22T09:48:32.864Z,5.17
2022-11-22T09:51:11.487Z,4.33
2022-11-22T09:54:01.677Z,3.70
2022-11-22T09:56:29.498Z,3.70
2022-11-22T09:59:02.599Z,3.97
2022-11-22T10:01:47.993Z,4.50
2022-11-22T10:04:21.251Z,4.13
2022-11-22T10:06:54.219Z,3.93
2022-11-22T10:09:42.707Z,2.97
2022-11-22T10:12:19.846Z,2.23
2022-11-22T10:15:04.828Z,2.23
2022-11-22T10:17:43.440Z,2.10
2022-11-22T10:20:20.596Z,2.60
2022-11-22T10:22:48.345Z,2.63
2022-11-22T10:25:19.506Z,2.67
2022-11-22T10:28:22.797Z,2.93
2022-11-22T10:31:03.556Z,2.77
2022-11-22T10:33:44.643Z,2.33
2022-11-22T10:36:20.641Z,2.10
2022-11-22T10:39:00.128Z,2.50
2022-11-22T10:41:54.329Z,1.70
2022-11-22T10:44:42.108Z,2.57
2022-11-22T10:47:08.567Z,1.93
2022-11-22T10:49:50.283Z,2.07
2022-11-22T10:52:30.143Z,2.87
2022-11-22T10:55:02.843Z,2.40
2022-11-22T10:58:05.108Z,2.87
2022-11-22T11:00:36.151Z,2.00
2022-11-22T11:03:10.347Z,1.90
2022-11-22T11:11:40.096Z,2.70
2022-11-22T11:14:45.305Z,2.00
2022-11-22T11:17:18.502Z,2.20
2022-11-22T11:19:49.737Z,2.10
2022-11-22T11:22:50.348Z,2.03
2022-11-22T11:25:31.855Z,1.40
2022-11-22T11:28:06.729Z,2.47
2022-11-22T11:30:39.165Z,2.63
2022-11-22T11:33:19.287Z,2.50
2022-11-22T11:35:47.500Z,2.20
2022-11-22T11:38:52.448Z,2.70
2022-11-22T11:41:32.149Z,2.50
2022-11-22T11:44:01.529Z,2.30
2022-11-22T11:46:29.946Z,2.90
2022-11-22T11:49:14.367Z,2.20
2022-11-22T11:51:46.399Z,2.20
2022-11-22T11:54:20.061Z,2.20
2022-11-22T11:56:57.649Z,2.10
2022-11-22T11:59:31.872Z,2.90
2022-11-22T12:02:04.541Z,1.77
2022-11-22T12:04:36.081Z,2.73
2022-11-22T12:07:19.403Z,2.03
2022-11-22T12:09:48.641Z,2.20
2022-11-22T12:12:30.383Z,3.13
2022-11-22T12:15:30.989Z,3.03
2022-11-22T12:18:12.316Z,2.30
2022-11-22T12:20:50.606Z,2.60
2022-11-22T12:23:20.847Z,2.40
2022-11-22T12:25:49.229Z,2.07
2022-11-22T12:28:21.495Z,2.53
2022-11-22T12:31:30.029Z,2.47
2022-11-22T12:34:00.711Z,1.80
2022-11-22T12:36:37.752Z,2.10
2022-11-22T12:39:06.730Z,2.40
2022-11-22T12:41:34.697Z,2.10
2022-11-22T12:44:04.570Z,2.33
2022-11-22T12:46:44.516Z,2.03
2022-11-22T12:49:37.592Z,2.03
2022-11-22T12:52:15.813Z,1.83
2022-11-22T12:55:00.687Z,1.80
2022-11-22T12:58:05.350Z,1.60
2022-11-22T13:00:37.127Z,2.10
2022-11-22T13:03:12.434Z,2.40
2022-11-22T13:05:49.832Z,1.47
2022-11-22T13:08:24.187Z,1.50
2022-11-22T13:11:04.760Z,2.00
2022-11-22T13:13:50.835Z,2.87
2022-11-22T13:16:17.403Z,1.77
2022-11-22T13:19:04.047Z,1.70
2022-11-22T13:21:56.274Z,1.93
2022-11-22T13:24:41.590Z,2.07
2022-11-22T13:27:48.435Z,2.23
2022-11-22T13:30:22.225Z,1.90
2022-11-22T13:32:59.654Z,1.77
2022-11-22T13:35:26.299Z,1.60
2022-11-22T13:37:55.499Z,1.97
2022-11-22T13:40:35.060Z,2.17
2022-11-22T13:43:17.951Z,1.77
2022-11-22T13:46:00.632Z,2.17
2022-11-22T13:48:39.542Z,3.00
2022-11-22T13:51:14.603Z,1.97
2022-11-22T13:53:43.996Z,1.03
2022-11-22T13:56:16.772Z,1.93
2022-11-22T13:58:52.183Z,1.77
2022-11-22T14:01:34.362Z,1.60
2022-11-22T14:04:16.046Z,1.83
2022-11-22T14:07:09.890Z,1.40
2022-11-22T14:09:42.239Z,1.53
2022-11-22T14:12:30.008Z,2.40
2022-11-22T14:15:08.793Z,1.60
2022-11-22T14:17:47.343Z,1.70
2022-11-22T14:20:19.906Z,2.00
2022-11-22T14:23:02.748Z,2.43
2022-11-22T14:25:54.186Z,2.17
2022-11-22T14:28:38.694Z,2.40
2022-11-22T14:31:25.146Z,1.80
2022-11-22T14:34:21.898Z,1.83
2022-11-22T14:37:10.209Z,1.73
2022-11-22T14:39:47.291Z,1.70
2022-11-22T14:42:35.491Z,1.80
2022-11-22T14:45:21.554Z,2.00
2022-11-22T14:47:52.695Z,2.20
2022-11-22T14:50:25.055Z,2.70
2022-11-22T14:52:53.716Z,3.40
2022-11-22T14:55:26.123Z,2.00
2022-11-22T14:58:00.571Z,2.03
2022-11-22T15:00:50.188Z,2.37
2022-11-22T15:03:45.226Z,2.50
2022-11-22T15:09:18.208Z,2.50
2022-11-22T15:09:53.529Z,3.10
2022-11-22T15:12:42.618Z,2.90
2022-11-22T15:59:45.224Z,1.50
2022-11-22T16:02:19.790Z,2.30
2022-11-22T16:06:06.047Z,2.10
2022-11-22T16:07:47.239Z,1.60
2022-11-22T16:10:21.957Z,2.40
2022-11-22T16:12:49.130Z,2.07
2022-11-22T16:15:36.262Z,1.70
2022-11-22T16:18:08.622Z,2.20
2022-11-22T16:20:37.409Z,2.97
2022-11-22T16:23:11.902Z,2.67
2022-11-22T16:25:43.262Z,1.97
2022-11-22T16:28:25.206Z,2.10
2022-11-22T16:30:55.380Z,2.57
2022-11-22T16:33:22.288Z,2.13
2022-11-22T16:35:55.938Z,2.33
2022-11-22T16:38:23.628Z,2.90
2022-11-22T16:40:51.281Z,1.93
2022-11-22T16:43:20.674Z,2.33
2022-11-22T16:45:48.938Z,2.47
2022-11-22T16:48:36.098Z,2.63
2022-11-22T16:51:04.866Z,2.30
2022-11-22T16:53:43.173Z,2.20
2022-11-22T16:56:27.046Z,2.07
2022-11-22T16:58:56.842Z,1.97
2022-11-22T17:01:26.672Z,2.70
2022-11-22T17:03:56.098Z,2.83
2022-11-22T17:06:27.784Z,2.23
2022-11-22T17:08:56.877Z,2.23
2022-11-22T17:11:30.427Z,2.20
2022-11-22T17:13:57.834Z,2.23
2022-11-22T17:16:24.664Z,2.20
2022-11-22T17:18:53.052Z,1.90
2022-11-22T17:21:25.291Z,2.20
2022-11-22T17:23:54.924Z,2.20
2022-11-22T17:26:21.757Z,2.67
2022-11-22T17:28:48.446Z,1.90
2022-11-22T17:31:18.219Z,3.07
2022-11-22T17:33:45.211Z,2.20
2022-11-22T17:36:18.035Z,2.93
2022-11-22T17:38:44.670Z,2.97
2022-11-22T17:41:11.490Z,2.13
2022-11-22T17:43:38.292Z,2.23
2022-11-22T17:46:04.919Z,1.97
2022-11-22T17:48:31.508Z,2.20
2022-11-22T17:50:58.070Z,2.03
2022-11-22T17:53:24.630Z,2.13
2022-11-22T17:58:38.169Z,2.30
2022-11-22T18:01:17.114Z,2.20
2022-11-22T18:03:44.647Z,2.57
2022-11-22T18:06:12.750Z,2.43
2022-11-22T18:08:47.014Z,1.90
2022-11-22T18:11:15.107Z,1.60
2022-11-22T18:13:42.025Z,2.37
2022-11-22T18:16:12.156Z,2.43
2022-11-22T18:21:29.401Z,2.40
2022-11-22T18:24:00.169Z,2.70
2022-11-22T18:26:42.842Z,1.90
2022-11-22T18:31:58.272Z,2.27
2022-11-22T18:34:25.166Z,2.20
2022-11-22T18:36:55.905Z,2.23
2022-11-22T18:39:24.789Z,2.43
2022-11-22T18:41:51.523Z,1.50
2022-11-22T18:44:18.305Z,2.23
2022-11-22T18:46:45.067Z,2.03
2022-11-22T18:49:11.689Z,1.93
2022-11-22T18:51:38.455Z,2.60
2022-11-22T18:54:05.152Z,2.20
2022-11-22T18:56:32.012Z,2.20
2022-11-22T18:58:58.653Z,2.10
2022-11-22T19:01:26.459Z,2.00
2022-11-22T19:03:53.866Z,2.50
2022-11-22T19:06:20.498Z,2.70
2022-11-22T19:08:47.770Z,2.10
2022-11-22T19:11:15.789Z,2.20
2022-11-22T19:13:43.695Z,2.60
2022-11-22T19:16:18.709Z,3.00
2022-11-22T19:18:45.472Z,1.80
2022-11-22T19:21:23.176Z,2.07
2022-11-22T19:23:50.472Z,2.53
2022-11-22T19:26:22.505Z,3.57
2022-11-22T19:28:50.404Z,3.20
2022-11-22T19:31:21.274Z,2.60
2022-11-22T19:33:48.293Z,2.50
2022-11-22T19:36:20.755Z,2.03
2022-11-22T19:38:48.528Z,2.80
2022-11-22T19:41:20.320Z,2.30
2022-11-22T19:43:47.923Z,2.30
2022-11-22T19:46:15.356Z,2.53
2022-11-22T19:48:47.007Z,2.60
2022-11-22T19:51:15.557Z,2.53
2022-11-22T19:53:42.450Z,2.63
2022-11-22T19:56:19.641Z,2.13
2022-11-22T19:58:56.612Z,2.40
2022-11-22T20:01:25.268Z,2.20
2022-11-22T20:03:54.621Z,2.30
2022-11-22T20:06:21.517Z,2.07
2022-11-22T20:08:48.032Z,2.37
2022-11-22T20:11:18.567Z,4.10
2022-11-22T20:13:47.630Z,3.67
2022-11-22T20:16:21.022Z,3.10
2022-11-22T20:18:51.583Z,2.40
2022-11-22T20:21:22.022Z,3.57
2022-11-22T20:23:53.083Z,3.20
2022-11-22T20:26:21.325Z,2.20
2022-11-22T20:28:53.895Z,2.67
2022-11-22T20:31:20.600Z,2.40
2022-11-22T20:33:49.688Z,2.40
2022-11-22T20:36:20.217Z,2.70
2022-11-22T20:38:48.952Z,2.60
2022-11-22T20:41:17.091Z,2.27
2022-11-22T20:43:44.303Z,1.93
2022-11-22T20:46:12.904Z,2.40
2022-11-22T20:48:40.795Z,2.70
2022-11-22T20:51:10.342Z,3.13
2022-11-22T20:53:43.570Z,2.00
2022-11-22T20:56:11.861Z,2.20
2022-11-22T20:58:38.811Z,2.87
2022-11-22T21:01:09.900Z,2.43
2022-11-22T21:03:36.439Z,2.67
2022-11-22T21:06:03.952Z,2.33
2022-11-22T21:08:31.100Z,2.37
2022-11-22T21:11:07.741Z,2.73
2022-11-22T21:13:34.440Z,3.00
2022-11-22T21:16:22.115Z,3.37
2022-11-22T21:19:04.785Z,4.87
2022-11-22T21:21:33.439Z,10.97
2022-11-22T21:24:03.043Z,9.17
2022-11-22T21:26:29.900Z,5.53
2022-11-22T21:28:57.078Z,3.87
2022-11-22T21:31:24.155Z,2.70
2022-11-22T21:33:51.240Z,3.23
2022-11-22T21:36:18.859Z,2.30
2022-11-22T21:38:45.446Z,2.20
2022-11-22T21:41:39.817Z,2.77
2022-11-22T21:44:03.824Z,2.73
2022-11-22T21:46:30.391Z,2.60
2022-11-22T21:48:57.046Z,3.20
2022-11-22T21:51:26.017Z,2.73
2022-11-22T21:53:59.198Z,13.53
2022-11-22T21:56:26.490Z,3.60
2022-11-22T21:58:53.080Z,2.70
2022-11-22T22:01:19.690Z,2.53
2022-11-22T22:03:46.342Z,2.67
2022-11-22T22:06:12.851Z,2.83
2022-11-22T22:08:40.827Z,2.50
2022-11-22T22:11:08.122Z,1.97
2022-11-22T22:13:34.950Z,1.90
2022-11-22T22:16:04.102Z,2.40
2022-11-22T22:18:37.149Z,3.20
2022-11-22T22:21:06.078Z,2.63
2022-11-22T22:23:33.643Z,2.90
2022-11-22T22:26:02.158Z,2.63
2022-11-22T22:28:32.938Z,2.97
2022-11-22T22:31:10.269Z,3.63
2022-11-22T22:33:39.284Z,4.10
2022-11-22T22:36:07.873Z,2.93
2022-11-22T22:38:34.821Z,2.43
2022-11-22T22:41:04.341Z,3.43
2022-11-22T22:43:37.312Z,2.80
2022-11-22T22:46:06.862Z,2.30
2022-11-22T22:48:34.588Z,2.83
2022-11-22T22:51:21.581Z,2.70
2022-11-22T22:53:48.903Z,2.93
2022-11-22T22:56:17.591Z,2.70
2022-11-22T22:58:44.504Z,2.20
2022-11-22T23:01:14.093Z,2.10
2022-11-22T23:03:40.878Z,2.80
2022-11-22T23:06:09.192Z,2.47
2022-11-22T23:08:36.582Z,2.27
2022-11-22T23:11:08.431Z,2.20
2022-11-22T23:13:40.560Z,2.30
2022-11-22T23:16:10.141Z,3.20
2022-11-22T23:18:39.073Z,1.80
2022-11-22T23:21:07.014Z,2.40
2022-11-22T23:23:34.436Z,2.50
2022-11-22T23:26:09.681Z,2.03
2022-11-22T23:28:36.665Z,2.57
2022-11-22T23:31:14.109Z,2.27
2022-11-22T23:33:42.267Z,2.30
2022-11-22T23:36:17.574Z,2.30
2022-11-22T23:38:44.469Z,2.67
2022-11-22T23:41:13.073Z,1.80
2022-11-22T23:43:40.376Z,1.93
2022-11-22T23:46:08.986Z,2.73
2022-11-22T23:48:35.503Z,2.30
2022-11-22T23:51:04.009Z,2.03
2022-11-22T23:53:30.525Z,1.63
2022-11-22T23:56:04.556Z,1.80
2022-11-22T23:58:31.035Z,2.07
